Terminal Aerodrome Forecast
Issued by NWS Bismarck, ND

Home | Current Version | Previous Version | Graphics & Text | Print | Product List | Glossary On
Versions: 1 2 3 4 5 6 7 8 9 10 11 12 13 14
929
FTUS43 KBIS 202325
TAFBIS
TAF
KBIS 202325Z 2100/2124 17016G23KT P6SM FEW130 SCT200
     FM210200 16011KT P6SM FEW150
     FM210900 16004KT P6SM FEW050
     FM211600 17011KT P6SM FEW030 SCT045
     FM211800 17017G26KT P6SM SCT050=

USA.gov is the U.S. government's official web portal to all federal, state and local government web resources and services.